WetterOnline ( https://www.wetteronline.de )

Wetter aktuell Malsch

Aktuelles Wetter: Waibstadt (237m)

6-stündlich | Neueste Meldungen
Ortszeit Temperatur Wetter
Di, 27.07. 8:00 16.5° C wolkenlos
Di, 27.07. 2:00 15.2° C fast wolkenlos
Mo, 26.07. 20:00 20.5° C wolkig
Mo, 26.07. 14:00 24.4° C leicht bewölkt
Mo, 26.07. 8:00 16.7° C bewölkt
Mo, 26.07. 2:00 16.5° C leicht bewölkt
So, 25.07. 20:00 23.1° C wolkenlos
So, 25.07. 14:00 23.4° C bewölkt
Ortszeit Temperatur Wetter
Di, 27.07. 12:30 23.4° C fast wolkenlos
Di, 27.07. 12:20 23.4° C fast wolkenlos
Di, 27.07. 12:10 23.4° C leicht bewölkt
Di, 27.07. 12:00 22.8° C wolkig
Di, 27.07. 11:50 22.8° C wolkig
Di, 27.07. 11:40 22.3° C bewölkt
Di, 27.07. 11:30 22.4° C bewölkt
Di, 27.07. 11:00 21.3° C bewölkt
Di, 27.07. 10:30 21.1° C wolkenlos
Di, 27.07. 10:00 20.5° C wolkenlos
Di, 27.07. 9:30 18.8° C wolkenlos
Ortszeit Relative Feuchte Sichtweite
Di, 27.07. 8:00 86% 35 km
Di, 27.07. 2:00 97% 27 km
Mo, 26.07. 20:00 71% 60 km
Mo, 26.07. 14:00 55% 50 km
Mo, 26.07. 8:00 93% 22 km
Mo, 26.07. 2:00 94% 30 km
So, 25.07. 20:00 62% 50 km
So, 25.07. 14:00 64% 40 km
Ortszeit Relative Feuchte Sichtweite
Di, 27.07. 12:30 59% 60 km
Di, 27.07. 12:20 59% -
Di, 27.07. 12:10 60% -
Di, 27.07. 12:00 62% 30 km
Di, 27.07. 11:50 62% -
Di, 27.07. 11:40 64% -
Di, 27.07. 11:30 64% 35 km
Di, 27.07. 11:00 68% 45 km
Di, 27.07. 10:30 70% 40 km
Di, 27.07. 10:00 77% 40 km
Di, 27.07. 9:30 83% 50 km
Ortszeit Niederschlagsmenge Niederschlagsart
Di, 27.07. 8:00 0.1 l/m2 in 12 Std. -
Di, 27.07. 2:00 0.1 l/m2 in 6 Std. Niederschlag
Mo, 26.07. 20:00 0.1 l/m2 in 12 Std. Niederschlag
Mo, 26.07. 14:00 0.0 l/m2 in 6 Std. -
Mo, 26.07. 8:00 0.0 l/m2 in 12 Std. -
Mo, 26.07. 2:00 0.0 l/m2 in 6 Std. -
So, 25.07. 20:00 0.1 l/m2 in 12 Std. Niederschlag
So, 25.07. 14:00 0.0 l/m2 in 6 Std. -
Ortszeit Niederschlagsmenge Niederschlagsart
Di, 27.07. 12:30 0.0 l/m2 in 1 Std. -
Di, 27.07. 12:20 keine Meldung -
Di, 27.07. 12:10 keine Meldung -
Di, 27.07. 12:00 0.0 l/m2 in 1 Std. -
Di, 27.07. 11:50 keine Meldung -
Di, 27.07. 11:40 keine Meldung -
Di, 27.07. 11:30 0.0 l/m2 in 1 Std. -
Di, 27.07. 11:00 0.0 l/m2 in 1 Std. -
Di, 27.07. 10:30 0.0 l/m2 in 1 Std. -
Di, 27.07. 10:00 0.0 l/m2 in 1 Std. -
Di, 27.07. 9:30 0.0 l/m2 in 1 Std. -
Ortszeit Stärke Spitze Richtung
km/h Bft. km/h Grad Sektor
Di, 27.07. 8:00 6 1 9 90° O
Di, 27.07. 2:00 4 1 22 110° O
Mo, 26.07. 20:00 9 2 30 170° S
Mo, 26.07. 14:00 7 2 22 310° NW
Mo, 26.07. 8:00 4 1 11 120° SO
Mo, 26.07. 2:00 4 1 18 70° O
So, 25.07. 20:00 7 2 29 180° S
So, 25.07. 14:00 7 2 22 210° SW
Ortszeit Stärke Spitze Richtung
km/h Bft. km/h Grad Sektor
Di, 27.07. 12:30 7 2 18 210° SW
Di, 27.07. 12:20 7 2 - 210° SW
Di, 27.07. 12:10 7 2 - 230° SW
Di, 27.07. 12:00 7 2 14 240° SW
Di, 27.07. 11:50 7 2 - 240° SW
Di, 27.07. 11:40 7 2 - 240° SW
Di, 27.07. 11:30 7 2 14 220° SW
Di, 27.07. 11:00 7 2 17 220° SW
Di, 27.07. 10:30 6 1 7 240° SW
Di, 27.07. 10:00 4 1 7 70° O
Di, 27.07. 9:30 4 1 7 110° O
Ortszeit Untergrenze Bedeckung Gattung
total tief tief mittel hoch
Di, 27.07. 8:00 - 0/8 0/8 - - -
Di, 27.07. 2:00 1500 m 1/8 1/8 - - -
Mo, 26.07. 20:00 2100 m 7/8 5/8 - - -
Mo, 26.07. 14:00 1260 m 3/8 1/8 - - -
Mo, 26.07. 8:00 2700 m 7/8 7/8 - - -
Mo, 26.07. 2:00 7800 m 5/8 0/8 - - -
So, 25.07. 20:00 - 0/8 0/8 - - -
So, 25.07. 14:00 4200 m 7/8 7/8 - - -
Ortszeit Bedeckungsgrad in Achtel und Wolkenuntergrenze
Di, 27.07. 12:30 1(6900m)
Di, 27.07. 12:20 1(6900m)
Di, 27.07. 12:10 2(6900m)
Di, 27.07. 12:00 1(900m) 7(6900m)
Di, 27.07. 11:50 1(900m) 7(6900m)
Di, 27.07. 11:40 7(6900m)
Di, 27.07. 11:30 7(6600m) 7(6900m)
Di, 27.07. 11:00 7(6600m)
Di, 27.07. 10:30 3(6900m)
Di, 27.07. 10:00 keine Wolken
Di, 27.07. 9:30 keine Wolken
Ortszeit Luftdruck NN (hPa) Tendenz (hPa in 3 Std.)
Di, 27.07. 8:00 1015 + 0,1
Di, 27.07. 2:00 1015 + 0,8
Mo, 26.07. 20:00 1012 + 0,1
Mo, 26.07. 14:00 1012 - 0,6
Mo, 26.07. 8:00 1012 + 0,6
Mo, 26.07. 2:00 1011 + 0,1
So, 25.07. 20:00 1009 0,0
So, 25.07. 14:00 1010 0,0
Ortszeit Luftdruck NN (hPa) Tendenz (hPa in 3 Std.)
Di, 27.07. 12:30 1015 0,0
Di, 27.07. 12:20 1015 keine Meldung
Di, 27.07. 12:10 1015 keine Meldung
Di, 27.07. 12:00 1015 + 0,3
Di, 27.07. 11:50 1015 keine Meldung
Di, 27.07. 11:40 1015 keine Meldung
Di, 27.07. 11:30 1015 + 0,5
Di, 27.07. 11:00 1015 + 0,5
Di, 27.07. 10:30 1015 + 0,5
Di, 27.07. 10:00 1015 + 0,2
Di, 27.07. 9:30 1015 + 0,1
Ortszeit Schneehöhe (cm)
Di, 27.07. 8:00 -
Di, 27.07. 2:00 -
Mo, 26.07. 20:00 -
Mo, 26.07. 14:00 -
Mo, 26.07. 8:00 -
Mo, 26.07. 2:00 -
So, 25.07. 20:00 -
So, 25.07. 14:00 -
Ortszeit Schneehöhe (cm)
Di, 27.07. 12:30 -
Di, 27.07. 12:20 -
Di, 27.07. 12:10 -
Di, 27.07. 12:00 -
Di, 27.07. 11:50 -
Di, 27.07. 11:40 -
Di, 27.07. 11:30 -
Di, 27.07. 11:00 -
Di, 27.07. 10:30 -
Di, 27.07. 10:00 -
Di, 27.07. 9:30 -
Link zu dieser Seite / Seite empfehlen

Das Wetter in ...